Time;durP1;ratioP1;P1;durP2;ratioP2;P2;SDS_P1;SDS_P2;PMS_P1;PMS_P2;Temp;Humidity;BMP_temperature;BMP_pressure;BME280_temperature;BME280_humidity;BME280_pressure;Samples;Min_cycle;Max_cycle;Signal;HPM_P1;HPM_P2
2022/05/24 00:02:01;;;;;;;;;;;;;;;17.29;63.79;99334.31;4990256;28;19956;-82
2022/05/24 00:04:26;;;;;;;;;;;;;;;17.23;64.33;99339.09;4991067;28;20410;-82
2022/05/24 00:06:51;;;;;;;;;;;;;;;17.19;64.00;99335.69;5006927;28;19917;-82
2022/05/24 00:09:17;;;;;;;;;;;;;;;17.14;64.14;99343.91;5007249;28;19922;-82
2022/05/24 00:11:43;;;;;;;;;;;;;;;17.21;64.03;99355.16;5008506;28;19917;-82
2022/05/24 00:14:08;;;;;;;;;;;;;;;17.13;63.91;99357.28;5007873;28;19921;-82
2022/05/24 00:16:34;;;;;;;;;;;;;;;16.98;64.20;99353.56;5008623;28;19918;-82
2022/05/24 00:18:59;;;;;;;;;;;;;;;16.94;65.11;99344.84;5008746;28;19921;-81
2022/05/24 00:21:24;;;;;;;;;;;;;;;16.88;65.19;99344.28;5007465;28;19946;-81
2022/05/24 00:23:50;;;;;;;;;;;;;;;16.81;65.21;99347.19;5008494;28;19968;-82
2022/05/24 00:26:20;;;;;;;;;;;;;;;17.02;64.37;99349.81;5007118;28;20307;-82
2022/05/24 00:28:46;;;;;;;;;;;;;;;16.90;64.75;99353.94;5008443;28;19935;-82
2022/05/24 00:31:11;;;;;;;;;;;;;;;17.00;64.75;99351.69;5007306;28;19932;-82
2022/05/24 00:33:36;;;;;;;;;;;;;;;16.94;64.67;99357.31;5008432;28;20380;-82
2022/05/24 00:36:02;;;;;;;;;;;;;;;16.88;64.94;99349.59;5008445;28;19959;-82
2022/05/24 00:38:29;;;;;;;;;;;;;;;16.95;64.81;99359.91;5007805;28;20307;-83
2022/05/24 00:41:03;;;;;;;;;;;;;;;16.85;65.29;99363.03;5008638;28;19917;-82
2022/05/24 00:43:35;;;;;;;;;;;;;;;16.97;64.94;99363.34;5008006;28;19917;-83
2022/05/24 00:46:03;;;;;;;;;;;;;;;16.90;65.43;99353.94;5007824;28;19921;-82
2022/05/24 00:48:37;;;;;;;;;;;;;;;17.05;65.01;99355.00;5008406;28;20372;-83
2022/05/24 00:51:05;;;;;;;;;;;;;;;16.68;66.04;99354.00;5008721;28;19917;-82
2022/05/24 00:53:37;;;;;;;;;;;;;;;16.83;65.71;99355.09;5006318;28;19999;-83
2022/05/24 00:56:11;;;;;;;;;;;;;;;16.91;65.26;99341.47;5008163;28;19921;-82
2022/05/24 00:58:49;;;;;;;;;;;;;;;16.80;65.96;99345.44;5007720;28;19976;-82
2022/05/24 01:01:17;;;;;;;;;;;;;;;16.92;65.79;99338.72;4988313;28;20005;-82
2022/05/24 01:03:43;;;;;;;;;;;;;;;16.93;65.69;99340.47;5007219;28;19928;-81
2022/05/24 01:06:08;;;;;;;;;;;;;;;16.94;65.23;99339.50;5008193;28;19921;-82
2022/05/24 01:08:33;;;;;;;;;;;;;;;16.96;65.47;99343.00;5008752;28;19918;-82
2022/05/24 01:11:00;;;;;;;;;;;;;;;16.84;65.92;99348.84;5008687;28;20005;-83
2022/05/24 01:13:28;;;;;;;;;;;;;;;16.91;65.19;99342.31;5008940;28;20311;-81
2022/05/24 01:15:53;;;;;;;;;;;;;;;16.94;65.29;99328.84;5008869;28;19928;-82
2022/05/24 01:18:21;;;;;;;;;;;;;;;16.92;65.21;99341.38;5007213;28;19913;-83
2022/05/24 01:20:49;;;;;;;;;;;;;;;17.03;65.13;99340.88;5007398;28;19928;-82
2022/05/24 01:23:33;;;;;;;;;;;;;;;16.94;65.13;99341.31;4989750;28;20457;-82
2022/05/24 01:26:03;;;;;;;;;;;;;;;16.82;65.22;99340.94;5006156;28;20303;-83
2022/05/24 01:28:33;;;;;;;;;;;;;;;16.89;65.25;99352.19;5007023;28;20012;-83
2022/05/24 01:30:59;;;;;;;;;;;;;;;16.81;64.93;99349.84;5006829;28;19914;-83
2022/05/24 01:36:09;;;;;;;;;;;;;;;16.84;65.23;99348.84;5006379;28;19991;-82
2022/05/24 01:38:35;;;;;;;;;;;;;;;16.97;64.37;99365.16;5006469;28;19917;-82
2022/05/24 01:41:00;;;;;;;;;;;;;;;16.83;64.72;99361.28;5006511;28;20429;-82
2022/05/24 01:43:27;;;;;;;;;;;;;;;16.67;65.21;99359.38;5006215;28;20375;-82
2022/05/24 01:45:55;;;;;;;;;;;;;;;16.49;65.45;99353.97;5007346;28;20423;-82
2022/05/24 01:48:25;;;;;;;;;;;;;;;16.44;65.93;99348.00;5005940;28;19921;-82
2022/05/24 01:50:52;;;;;;;;;;;;;;;16.29;66.44;99355.72;5006992;28;19979;-83
2022/05/24 01:53:20;;;;;;;;;;;;;;;16.27;66.56;99349.59;5006890;28;20022;-82
2022/05/24 01:55:48;;;;;;;;;;;;;;;16.36;66.37;99351.00;4989886;28;20864;-82
2022/05/24 01:58:15;;;;;;;;;;;;;;;16.26;66.60;99370.97;5007082;28;20011;-82
2022/05/24 02:00:44;;;;;;;;;;;;;;;16.32;66.67;99362.72;5006922;28;19921;-82
2022/05/24 02:03:09;;;;;;;;;;;;;;;16.28;66.49;99354.00;5006750;28;20015;-82
2022/05/24 02:05:39;;;;;;;;;;;;;;;16.11;66.43;99356.50;5010507;28;20004;-82
2022/05/24 02:08:09;;;;;;;;;;;;;;;16.24;66.04;99368.38;5010910;28;20391;-82
2022/05/24 02:10:40;;;;;;;;;;;;;;;16.04;66.37;99361.25;5010370;28;20011;-82
2022/05/24 02:13:07;;;;;;;;;;;;;;;16.06;66.81;99363.84;5010263;28;19928;-82
2022/05/24 02:15:35;;;;;;;;;;;;;;;16.12;66.61;99368.91;5010853;28;19918;-82
2022/05/24 02:18:12;;;;;;;;;;;;;;;16.24;66.64;99380.81;5010293;28;19919;-83
2022/05/24 02:20:38;;;;;;;;;;;;;;;16.35;66.94;99380.34;5010315;28;19921;-83
2022/05/24 02:23:04;;;;;;;;;;;;;;;16.36;66.01;99382.94;5010325;28;19921;-83
2022/05/24 02:25:47;;;;;;;;;;;;;;;16.42;66.24;99387.13;5010424;28;20322;-82
2022/05/24 02:28:14;;;;;;;;;;;;;;;16.37;65.45;99383.78;5010253;28;19924;-82
2022/05/24 02:30:41;;;;;;;;;;;;;;;16.39;65.49;99377.47;5010442;28;19917;-82
2022/05/24 02:33:07;;;;;;;;;;;;;;;16.38;65.44;99378.41;5009785;28;19921;-82
2022/05/24 02:35:32;;;;;;;;;;;;;;;16.22;65.92;99383.53;5010056;28;19928;-82
2022/05/24 02:37:58;;;;;;;;;;;;;;;16.20;66.18;99381.88;5010095;28;19921;-81
2022/05/24 02:43:07;;;;;;;;;;;;;;;16.27;65.97;99389.53;5009537;28;20008;-83
2022/05/24 02:45:32;;;;;;;;;;;;;;;16.36;65.38;99395.38;5009895;28;19921;-82
2022/05/24 02:47:58;;;;;;;;;;;;;;;16.34;66.21;99394.56;5009255;28;20383;-82
2022/05/24 02:50:23;;;;;;;;;;;;;;;16.42;65.58;99398.66;5009516;28;19944;-81
2022/05/24 02:52:49;;;;;;;;;;;;;;;16.27;65.61;99375.34;5009777;28;20415;-81
2022/05/24 02:55:15;;;;;;;;;;;;;;;16.40;66.08;99394.31;4992080;28;19924;-81
2022/05/24 02:57:40;;;;;;;;;;;;;;;16.37;66.41;99394.44;5009448;28;19925;-82
2022/05/24 03:00:08;;;;;;;;;;;;;;;16.25;67.20;99383.41;5009716;28;19920;-81
2022/05/24 03:02:34;;;;;;;;;;;;;;;16.25;67.33;99391.41;5007955;28;19921;-84
2022/05/24 03:05:00;;;;;;;;;;;;;;;16.43;66.22;99400.34;5009009;28;20721;-81
2022/05/24 03:10:09;;;;;;;;;;;;;;;16.69;65.75;99401.00;5008787;28;19940;-82
2022/05/24 03:15:19;;;;;;;;;;;;;;;16.51;66.22;99402.69;4988491;28;19980;-81
2022/05/24 03:17:44;;;;;;;;;;;;;;;16.40;66.79;99407.63;4989466;28;20367;-82
2022/05/24 03:20:10;;;;;;;;;;;;;;;16.42;67.01;99411.06;4988800;28;19922;-83
2022/05/24 03:22:35;;;;;;;;;;;;;;;16.54;66.92;99401.69;4988805;28;19917;-80
2022/05/24 03:25:00;;;;;;;;;;;;;;;16.60;66.63;99409.41;4989630;28;19917;-81
2022/05/24 03:27:26;;;;;;;;;;;;;;;16.64;66.55;99416.34;4990680;28;19917;-81
2022/05/24 03:29:51;;;;;;;;;;;;;;;16.70;66.24;99412.50;4993025;28;19921;-81
2022/05/24 03:32:18;;;;;;;;;;;;;;;16.79;65.99;99409.44;4974045;28;20045;-81
2022/05/24 03:34:43;;;;;;;;;;;;;;;16.63;66.65;99415.44;4971156;28;20415;-81
2022/05/24 03:37:08;;;;;;;;;;;;;;;16.68;67.08;99409.91;4989360;28;19921;-82
2022/05/24 03:39:34;;;;;;;;;;;;;;;16.78;66.70;99416.56;4988555;28;19918;-81
2022/05/24 03:41:59;;;;;;;;;;;;;;;16.73;66.64;99415.94;4990041;28;19918;-82
2022/05/24 03:44:25;;;;;;;;;;;;;;;16.82;66.78;99412.84;4985232;28;19968;-82
2022/05/24 03:46:51;;;;;;;;;;;;;;;16.96;66.30;99411.38;4989146;28;19918;-82
2022/05/24 03:49:16;;;;;;;;;;;;;;;17.08;65.90;99409.94;4988406;28;19914;-81
2022/05/24 03:51:42;;;;;;;;;;;;;;;17.23;65.91;99416.38;4988782;28;20007;-82
2022/05/24 03:54:07;;;;;;;;;;;;;;;17.21;66.63;99408.47;4989235;28;20509;-82
2022/05/24 03:56:33;;;;;;;;;;;;;;;17.58;65.31;99401.38;4988704;28;20119;-81
2022/05/24 03:58:59;;;;;;;;;;;;;;;17.62;63.94;99408.25;4988980;28;20403;-81
2022/05/24 04:01:24;;;;;;;;;;;;;;;17.54;63.48;99405.97;4987984;28;20300;-81
2022/05/24 04:03:49;;;;;;;;;;;;;;;17.50;64.41;99408.84;4988857;28;19922;-81
2022/05/24 04:06:15;;;;;;;;;;;;;;;17.47;65.36;99409.00;4987629;28;20404;-81
2022/05/24 04:08:41;;;;;;;;;;;;;;;17.54;65.66;99413.97;4988956;28;19922;-82
2022/05/24 04:11:07;;;;;;;;;;;;;;;17.73;64.28;99418.41;4988232;28;19921;-81
2022/05/24 04:13:33;;;;;;;;;;;;;;;17.79;64.00;99425.25;5003212;28;20306;-82
2022/05/24 04:15:59;;;;;;;;;;;;;;;17.89;63.84;99423.91;5008364;28;19960;-81
2022/05/24 04:18:25;;;;;;;;;;;;;;;17.80;62.77;99435.84;5007714;28;19960;-81
2022/05/24 04:20:50;;;;;;;;;;;;;;;17.90;62.14;99428.28;5007879;28;19933;-81
2022/05/24 04:23:17;;;;;;;;;;;;;;;17.92;62.10;99431.75;5006638;28;19936;-81
2022/05/24 04:25:42;;;;;;;;;;;;;;;17.96;61.83;99427.13;5006020;28;19957;-81
2022/05/24 04:28:07;;;;;;;;;;;;;;;17.98;61.42;99428.78;4987294;28;19964;-81
2022/05/24 04:30:33;;;;;;;;;;;;;;;17.95;61.41;99428.06;5005854;28;20375;-80
2022/05/24 04:32:58;;;;;;;;;;;;;;;18.09;61.74;99438.94;5007412;28;19921;-81
2022/05/24 04:35:24;;;;;;;;;;;;;;;18.35;61.45;99434.06;5007471;28;20035;-80
2022/05/24 04:37:49;;;;;;;;;;;;;;;18.60;60.59;99439.88;5008250;28;19913;-81
2022/05/24 04:40:15;;;;;;;;;;;;;;;18.67;60.20;99439.53;4997900;28;19969;-82
2022/05/24 04:42:40;;;;;;;;;;;;;;;18.43;60.07;99438.06;4991748;28;20375;-83
2022/05/24 04:45:07;;;;;;;;;;;;;;;18.47;60.59;99432.56;5006706;28;19921;-81
2022/05/24 04:47:33;;;;;;;;;;;;;;;18.23;60.57;99425.72;4988392;28;19925;-82
2022/05/24 04:50:00;;;;;;;;;;;;;;;18.13;61.69;99429.81;5004621;28;20327;-82
2022/05/24 04:52:27;;;;;;;;;;;;;;;18.02;61.14;99430.34;5005713;28;19917;-81
2022/05/24 04:54:53;;;;;;;;;;;;;;;18.13;61.43;99424.47;5007254;28;19918;-82
2022/05/24 04:57:19;;;;;;;;;;;;;;;18.40;61.24;99419.53;5000965;28;19928;-81
2022/05/24 04:59:45;;;;;;;;;;;;;;;18.22;61.06;99424.00;5007876;28;19921;-82
2022/05/24 05:02:10;;;;;;;;;;;;;;;18.31;61.27;99425.34;5008770;28;19917;-81
2022/05/24 05:04:36;;;;;;;;;;;;;;;18.39;60.41;99435.63;5007600;28;19984;-81
2022/05/24 05:07:02;;;;;;;;;;;;;;;18.87;58.52;99436.69;5004167;28;19922;-80
2022/05/24 05:09:34;;;;;;;;;;;;;;;18.67;58.49;99444.88;5006900;28;19944;-81
2022/05/24 05:12:00;;;;;;;;;;;;;;;18.66;58.59;99448.50;4989448;28;19928;-82
2022/05/24 05:14:25;;;;;;;;;;;;;;;18.91;58.20;99440.09;5007905;28;19917;-82
2022/05/24 05:16:50;;;;;;;;;;;;;;;19.30;57.65;99447.75;5007681;28;19924;-82
2022/05/24 05:19:16;;;;;;;;;;;;;;;19.54;56.95;99449.13;5006765;28;19925;-83
2022/05/24 05:21:41;;;;;;;;;;;;;;;19.89;56.66;99447.16;4989349;28;20407;-80
2022/05/24 05:24:07;;;;;;;;;;;;;;;19.99;55.48;99450.19;5006681;28;19925;-81
2022/05/24 05:26:32;;;;;;;;;;;;;;;19.98;55.03;99451.16;4997748;28;19922;-82
2022/05/24 05:28:58;;;;;;;;;;;;;;;20.01;54.79;99448.28;5023096;28;19909;-81
2022/05/24 05:31:26;;;;;;;;;;;;;;;20.12;54.07;99451.19;5017432;28;20443;-82
2022/05/24 05:33:52;;;;;;;;;;;;;;;19.90;54.15;99440.88;5017991;28;19929;-81
2022/05/24 05:36:18;;;;;;;;;;;;;;;19.64;54.75;99436.97;5007808;28;19917;-82
2022/05/24 05:38:47;;;;;;;;;;;;;;;19.28;55.99;99417.56;5006205;28;20380;-81
2022/05/24 05:41:23;;;;;;;;;;;;;;;19.31;57.25;99412.03;5010910;28;20059;-81
2022/05/24 05:43:49;;;;;;;;;;;;;;;19.37;56.26;99423.34;5011139;28;19928;-80
2022/05/24 05:46:15;;;;;;;;;;;;;;;19.63;55.68;99444.16;5010234;28;19917;-81
2022/05/24 05:48:40;;;;;;;;;;;;;;;19.81;55.44;99439.59;5010966;28;20391;-81
2022/05/24 05:51:07;;;;;;;;;;;;;;;19.91;55.58;99434.59;5011312;28;19960;-82
2022/05/24 05:53:32;;;;;;;;;;;;;;;20.39;54.48;99440.69;5011040;28;19917;-83
2022/05/24 05:55:58;;;;;;;;;;;;;;;20.65;53.28;99451.69;5011485;28;20382;-82
2022/05/24 05:58:23;;;;;;;;;;;;;;;20.52;53.10;99456.03;5010749;28;20375;-81
2022/05/24 06:00:49;;;;;;;;;;;;;;;20.42;52.52;99453.03;5007024;28;19928;-82
2022/05/24 06:03:15;;;;;;;;;;;;;;;20.27;53.52;99467.34;5009782;28;19917;-80
2022/05/24 06:05:40;;;;;;;;;;;;;;;20.52;53.09;99464.91;5010892;28;19917;-80
2022/05/24 06:08:08;;;;;;;;;;;;;;;20.23;53.94;99463.94;5009736;28;20018;-80
2022/05/24 06:10:34;;;;;;;;;;;;;;;20.51;54.21;99459.63;5010038;28;19921;-79
2022/05/24 06:13:00;;;;;;;;;;;;;;;20.48;52.91;99454.47;5010272;28;19940;-79
2022/05/24 06:15:28;;;;;;;;;;;;;;;20.78;52.28;99459.84;5010234;28;19926;-79
2022/05/24 06:17:54;;;;;;;;;;;;;;;20.65;52.28;99465.09;5010218;28;19918;-80
2022/05/24 06:20:20;;;;;;;;;;;;;;;20.98;51.71;99469.34;4993199;28;20012;-80
2022/05/24 06:22:46;;;;;;;;;;;;;;;20.97;51.15;99459.56;5009664;28;19928;-82
2022/05/24 06:25:12;;;;;;;;;;;;;;;20.72;51.12;99469.09;5010576;28;19920;-81
2022/05/24 06:27:37;;;;;;;;;;;;;;;20.93;51.94;99461.56;4992475;28;20380;-83
2022/05/24 06:30:03;;;;;;;;;;;;;;;21.20;51.02;99463.50;5010066;28;19922;-81
2022/05/24 06:32:30;;;;;;;;;;;;;;;21.37;50.13;99457.06;5010312;28;19917;-82
2022/05/24 06:34:55;;;;;;;;;;;;;;;21.44;50.08;99458.41;5009876;28;19917;-82
2022/05/24 06:37:20;;;;;;;;;;;;;;;21.48;50.59;99460.88;5009673;28;20417;-81
2022/05/24 06:39:47;;;;;;;;;;;;;;;21.69;50.00;99466.72;5007314;28;19921;-80
2022/05/24 06:42:12;;;;;;;;;;;;;;;22.23;48.40;99476.59;5010051;28;20013;-81
2022/05/24 06:44:37;;;;;;;;;;;;;;;22.27;47.02;99468.25;5006195;28;20436;-83
2022/05/24 06:47:03;;;;;;;;;;;;;;;21.74;47.04;99461.94;5003902;28;20430;-81
2022/05/24 06:49:28;;;;;;;;;;;;;;;21.81;47.53;99471.28;5007301;28;20035;-82
2022/05/24 06:51:53;;;;;;;;;;;;;;;21.67;48.86;99468.63;5018023;28;19916;-82
2022/05/24 06:54:20;;;;;;;;;;;;;;;22.36;47.61;99456.06;5030076;28;20452;-81
2022/05/24 06:56:45;;;;;;;;;;;;;;;22.11;46.77;99459.50;5029873;28;19917;-87
2022/05/24 07:04:39;;;;;;;;;;;;;;;22.11;46.23;99476.47;5009487;28;19991;-84
2022/05/24 07:07:05;;;;;;;;;;;;;;;21.92;45.75;99467.91;5008896;28;19917;-83
2022/05/24 07:09:31;;;;;;;;;;;;;;;22.08;46.17;99475.81;5009230;28;20438;-80
2022/05/24 07:11:57;;;;;;;;;;;;;;;22.29;46.06;99477.06;4990469;28;20016;-78
2022/05/24 07:14:22;;;;;;;;;;;;;;;22.20;45.84;99469.63;5010318;28;20359;-82
2022/05/24 07:16:47;;;;;;;;;;;;;;;21.99;46.83;99463.84;5009514;28;20426;-79
2022/05/24 07:19:13;;;;;;;;;;;;;;;22.22;45.67;99459.63;5007899;28;19913;-81
2022/05/24 07:21:38;;;;;;;;;;;;;;;21.92;46.33;99462.53;4991794;28;19917;-80
2022/05/24 07:24:03;;;;;;;;;;;;;;;22.03;46.38;99459.13;4994891;28;20600;-80
2022/05/24 07:26:29;;;;;;;;;;;;;;;22.19;46.14;99459.84;4999439;28;20872;-82
2022/05/24 07:28:54;;;;;;;;;;;;;;;22.58;45.17;99468.88;5009454;28;19917;-80
2022/05/24 07:31:19;;;;;;;;;;;;;;;22.71;45.00;99472.47;5008648;28;19971;-79
2022/05/24 07:33:45;;;;;;;;;;;;;;;22.53;45.01;99460.28;5008045;28;19921;-80
2022/05/24 07:36:10;;;;;;;;;;;;;;;22.67;45.36;99462.88;5009712;28;19917;-80
2022/05/24 07:38:35;;;;;;;;;;;;;;;22.63;44.08;99461.38;5009117;28;20389;-82
2022/05/24 07:46:29;;;;;;;;;;;;;;;23.63;43.31;99436.47;5004218;28;20671;-82
2022/05/24 07:48:55;;;;;;;;;;;;;;;23.81;41.99;99439.63;5008068;28;19917;-82
2022/05/24 07:51:20;;;;;;;;;;;;;;;24.24;42.01;99431.91;5008489;28;19921;-81
2022/05/24 07:53:45;;;;;;;;;;;;;;;24.60;40.78;99440.00;5007873;28;19918;-82
2022/05/24 07:56:13;;;;;;;;;;;;;;;24.88;39.53;99437.84;5008323;28;19961;-82
2022/05/24 07:58:38;;;;;;;;;;;;;;;24.87;42.78;99452.31;5008864;28;19921;-81
2022/05/24 08:01:04;;;;;;;;;;;;;;;24.83;40.07;99441.75;5008487;28;19923;-81
2022/05/24 08:03:30;;;;;;;;;;;;;;;24.89;40.36;99437.72;5008186;28;19917;-82
2022/05/24 08:05:55;;;;;;;;;;;;;;;24.72;39.70;99440.91;5007802;28;19984;-81
2022/05/24 08:08:21;;;;;;;;;;;;;;;25.00;39.60;99432.34;5007918;28;19925;-82
2022/05/24 08:10:47;;;;;;;;;;;;;;;25.43;39.49;99441.56;5006771;28;20759;-82
2022/05/24 08:13:14;;;;;;;;;;;;;;;25.14;39.52;99443.88;4989219;28;19917;-83
2022/05/24 08:15:40;;;;;;;;;;;;;;;24.81;40.26;99448.28;5007916;28;19921;-83
2022/05/24 08:18:06;;;;;;;;;;;;;;;24.00;42.97;99444.53;5007245;28;20484;-83
2022/05/24 08:20:32;;;;;;;;;;;;;;;24.35;42.67;99441.03;5007632;28;19917;-82
2022/05/24 08:22:57;;;;;;;;;;;;;;;24.36;41.32;99431.94;5008512;28;19975;-82
2022/05/24 08:25:23;;;;;;;;;;;;;;;23.72;41.60;99433.94;5007393;28;20319;-83
2022/05/24 08:27:49;;;;;;;;;;;;;;;24.08;41.32;99429.53;5008315;28;20017;-82
2022/05/24 08:30:15;;;;;;;;;;;;;;;24.26;42.28;99429.09;5007932;28;19917;-82
2022/05/24 08:32:41;;;;;;;;;;;;;;;24.20;41.68;99421.47;5008295;28;19940;-81
2022/05/24 08:35:07;;;;;;;;;;;;;;;23.88;42.24;99422.06;4989896;28;20379;-81
2022/05/24 08:37:32;;;;;;;;;;;;;;;24.21;41.85;99415.97;5008241;28;20023;-82
2022/05/24 08:39:59;;;;;;;;;;;;;;;24.59;40.64;99414.91;5008395;28;20004;-81
2022/05/24 08:42:39;;;;;;;;;;;;;;;25.17;42.27;99417.50;5007923;28;19913;-82
2022/05/24 08:50:47;;;;;;;;;;;;;;;24.64;40.74;99377.63;4988542;28;20067;-83
2022/05/24 08:53:17;;;;;;;;;;;;;;;24.45;40.56;99375.50;4988388;28;19913;-82
2022/05/24 08:55:43;;;;;;;;;;;;;;;24.52;40.47;99383.09;4988263;28;20026;-82
2022/05/24 08:58:12;;;;;;;;;;;;;;;24.87;41.61;99384.88;5003520;28;19949;-82
2022/05/24 09:00:39;;;;;;;;;;;;;;;24.72;43.23;99397.75;5007529;28;19967;-84
2022/05/24 09:03:05;;;;;;;;;;;;;;;25.27;42.25;99409.53;5007263;28;19924;-82
2022/05/24 09:05:34;;;;;;;;;;;;;;;25.28;41.08;99413.09;5007834;28;19961;-82
2022/05/24 09:08:17;;;;;;;;;;;;;;;24.95;39.69;99402.19;5007790;28;19992;-83
2022/05/24 09:10:51;;;;;;;;;;;;;;;24.72;40.50;99405.84;5008326;28;19925;-83
2022/05/24 09:13:35;;;;;;;;;;;;;;;24.70;41.25;99407.78;5007190;28;19921;-83
2022/05/24 09:16:14;;;;;;;;;;;;;;;24.80;41.52;99409.63;5007733;28;19917;-83
2022/05/24 09:18:58;;;;;;;;;;;;;;;25.26;41.09;99410.50;4989926;28;20391;-83
2022/05/24 09:21:28;;;;;;;;;;;;;;;24.99;40.06;99403.66;5007529;28;19917;-83
2022/05/24 09:24:17;;;;;;;;;;;;;;;24.97;39.91;99415.53;5007377;28;19917;-83
2022/05/24 09:27:22;;;;;;;;;;;;;;;25.02;38.64;99414.22;4962606;28;20386;-84
2022/05/24 09:29:50;;;;;;;;;;;;;;;25.30;39.34;99412.03;4927474;29;19934;-83
2022/05/24 09:32:15;;;;;;;;;;;;;;;25.46;38.04;99399.97;4911525;29;19919;-81
2022/05/24 09:34:41;;;;;;;;;;;;;;;24.95;38.42;99395.94;4965749;28;19917;-81
2022/05/24 09:37:14;;;;;;;;;;;;;;;25.43;39.31;99398.38;5007580;28;19945;-82
2022/05/24 09:39:42;;;;;;;;;;;;;;;25.61;38.71;99389.75;5007452;28;19917;-82
2022/05/24 09:42:13;;;;;;;;;;;;;;;25.59;39.42;99400.66;5007477;28;20673;-82
2022/05/24 09:44:47;;;;;;;;;;;;;;;25.66;38.49;99395.66;5005671;28;20018;-81
2022/05/24 09:47:27;;;;;;;;;;;;;;;25.51;37.60;99393.19;5007255;28;19925;-82
2022/05/24 09:49:53;;;;;;;;;;;;;;;25.71;37.25;99386.16;5007313;28;19952;-82
2022/05/24 09:52:18;;;;;;;;;;;;;;;25.98;37.65;99382.19;5007576;28;19964;-82
2022/05/24 09:54:52;;;;;;;;;;;;;;;26.03;38.19;99373.69;5007434;28;19921;-83
2022/05/24 09:57:21;;;;;;;;;;;;;;;25.54;37.18;99368.66;5005895;28;20351;-82
2022/05/24 09:59:57;;;;;;;;;;;;;;;25.72;38.14;99376.22;5007476;28;19924;-82
2022/05/24 10:02:33;;;;;;;;;;;;;;;25.90;37.33;99380.09;5006453;28;19989;-83
2022/05/24 10:04:58;;;;;;;;;;;;;;;25.98;36.99;99379.47;5006873;28;19967;-83
2022/05/24 10:07:24;;;;;;;;;;;;;;;26.38;39.75;99384.16;5006241;28;19925;-85
2022/05/24 10:09:52;;;;;;;;;;;;;;;26.62;37.26;99381.19;4988232;28;19921;-83
2022/05/24 10:12:30;;;;;;;;;;;;;;;26.73;35.88;99369.47;5005644;28;19958;-83
2022/05/24 10:14:55;;;;;;;;;;;;;;;26.96;36.71;99372.00;5006217;28;19918;-83
2022/05/24 10:17:39;;;;;;;;;;;;;;;26.80;37.00;99365.25;5007201;28;19917;-83
2022/05/24 10:20:12;;;;;;;;;;;;;;;26.77;36.73;99361.94;5006643;28;19917;-81
2022/05/24 10:22:43;;;;;;;;;;;;;;;27.00;37.20;99365.31;5006902;28;19940;-82
2022/05/24 10:25:35;;;;;;;;;;;;;;;26.59;38.08;99361.69;5007947;28;19918;-83
2022/05/24 10:28:10;;;;;;;;;;;;;;;26.39;37.25;99369.66;4972758;28;20401;-82
2022/05/24 10:30:59;;;;;;;;;;;;;;;26.64;37.26;99364.84;5010417;28;19914;-80
2022/05/24 10:39:25;;;;;;;;;;;;;;;26.54;38.05;99361.19;5010150;28;19964;-82
2022/05/24 10:41:50;;;;;;;;;;;;;;;26.48;38.55;99354.50;5010612;28;19921;-83
2022/05/24 10:44:23;;;;;;;;;;;;;;;26.24;39.42;99346.66;5010535;28;19967;-81
2022/05/24 10:46:56;;;;;;;;;;;;;;;26.63;37.81;99344.16;5010667;28;19917;-81
2022/05/24 10:49:26;;;;;;;;;;;;;;;26.69;39.32;99342.81;5009732;28;19924;-81
2022/05/24 10:51:56;;;;;;;;;;;;;;;26.70;38.85;99334.56;5010546;28;19923;-82
2022/05/24 10:54:21;;;;;;;;;;;;;;;26.69;37.01;99329.28;5010654;28;19971;-81
2022/05/24 10:56:49;;;;;;;;;;;;;;;27.30;37.19;99329.22;5009478;28;19918;-81
2022/05/24 10:59:40;;;;;;;;;;;;;;;27.91;35.79;99331.88;5009930;28;19921;-82
2022/05/24 11:02:20;;;;;;;;;;;;;;;27.37;37.89;99323.28;5005389;28;20395;-80
2022/05/24 11:04:49;;;;;;;;;;;;;;;27.55;37.36;99315.34;4991125;28;19917;-81
2022/05/24 11:07:17;;;;;;;;;;;;;;;27.79;36.95;99307.66;5008797;28;19923;-81
2022/05/24 11:09:47;;;;;;;;;;;;;;;27.45;37.71;99294.50;5008755;28;20315;-81
2022/05/24 11:12:18;;;;;;;;;;;;;;;27.10;39.27;99298.53;5008431;28;19964;-81
2022/05/24 11:14:47;;;;;;;;;;;;;;;27.27;37.53;99291.59;5009419;28;19924;-81
2022/05/24 11:17:13;;;;;;;;;;;;;;;27.15;37.97;99295.41;5009934;28;19914;-81
2022/05/24 11:19:42;;;;;;;;;;;;;;;27.35;37.77;99284.66;5008917;28;19980;-82
2022/05/24 11:22:22;;;;;;;;;;;;;;;27.81;38.26;99283.13;5009721;28;19924;-80
2022/05/24 11:25:07;;;;;;;;;;;;;;;27.66;37.81;99278.09;4990456;28;20336;-80
2022/05/24 11:27:36;;;;;;;;;;;;;;;27.27;38.41;99269.09;5009546;28;19974;-81
2022/05/24 11:30:19;;;;;;;;;;;;;;;27.40;38.57;99252.59;5008960;28;20395;-80
2022/05/24 11:32:47;;;;;;;;;;;;;;;27.62;37.43;99254.16;5008468;28;19917;-82
2022/05/24 11:35:19;;;;;;;;;;;;;;;27.40;39.69;99248.03;5008867;28;19918;-82
2022/05/24 11:37:45;;;;;;;;;;;;;;;27.50;39.29;99256.19;5007623;28;20013;-82
2022/05/24 11:40:31;;;;;;;;;;;;;;;27.29;39.00;99261.69;5009685;28;19924;-83
2022/05/24 11:42:58;;;;;;;;;;;;;;;27.84;39.94;99267.41;5008262;28;20407;-82
2022/05/24 11:45:29;;;;;;;;;;;;;;;27.93;38.35;99271.13;5008403;28;19917;-82
2022/05/24 11:48:03;;;;;;;;;;;;;;;27.84;38.75;99263.84;5007672;28;20402;-83
2022/05/24 11:50:31;;;;;;;;;;;;;;;27.48;39.88;99266.28;5006423;28;19944;-84
2022/05/24 11:53:03;;;;;;;;;;;;;;;27.49;38.71;99273.41;5009610;28;19921;-85
2022/05/24 11:55:40;;;;;;;;;;;;;;;27.97;38.07;99283.41;5008215;28;19924;-83
2022/05/24 11:58:26;;;;;;;;;;;;;;;27.76;38.01;99277.25;5008572;28;20308;-83
2022/05/24 12:00:57;;;;;;;;;;;;;;;27.36;40.01;99280.94;4985360;28;19921;-83
2022/05/24 12:09:10;;;;;;;;;;;;;;;26.88;41.15;99293.34;4989431;28;19940;-83
2022/05/24 12:11:36;;;;;;;;;;;;;;;26.89;40.81;99293.19;4988790;28;19975;-83
2022/05/24 12:14:13;;;;;;;;;;;;;;;27.35;39.67;99288.22;4995683;28;19921;-84
2022/05/24 12:16:45;;;;;;;;;;;;;;;27.41;40.08;99314.75;5007980;28;19921;-84
2022/05/24 12:19:31;;;;;;;;;;;;;;;27.12;41.32;99320.06;5007282;28;19921;-84
2022/05/24 12:21:56;;;;;;;;;;;;;;;27.02;41.69;99330.00;5007536;28;19917;-83
2022/05/24 12:24:24;;;;;;;;;;;;;;;26.85;41.98;99335.06;5008302;28;19917;-85
2022/05/24 12:27:08;;;;;;;;;;;;;;;26.82;41.98;99331.75;5007148;28;19926;-83
2022/05/24 12:29:33;;;;;;;;;;;;;;;26.80;42.96;99321.94;5007761;28;19928;-84
2022/05/24 12:32:05;;;;;;;;;;;;;;;26.68;44.07;99309.50;5007560;28;19917;-83
2022/05/24 12:34:31;;;;;;;;;;;;;;;26.77;43.94;99311.41;5007704;28;19913;-83
2022/05/24 12:36:57;;;;;;;;;;;;;;;26.77;43.46;99315.94;5007585;28;19921;-84
2022/05/24 12:39:23;;;;;;;;;;;;;;;26.60;43.40;99315.56;5005468;28;20406;-83
2022/05/24 12:41:55;;;;;;;;;;;;;;;26.85;43.49;99299.91;5007358;28;19921;-82
2022/05/24 12:44:22;;;;;;;;;;;;;;;26.73;43.74;99309.94;5007272;28;20426;-83
2022/05/24 12:47:06;;;;;;;;;;;;;;;26.87;44.08;99306.03;5007605;28;19996;-82
2022/05/24 12:49:33;;;;;;;;;;;;;;;27.03;43.33;99299.22;5007636;28;19956;-83
2022/05/24 12:52:20;;;;;;;;;;;;;;;27.05;43.68;99294.53;5007841;28;19913;-83
2022/05/24 12:54:50;;;;;;;;;;;;;;;27.26;43.02;99303.41;5008300;28;19995;-81
2022/05/24 12:57:20;;;;;;;;;;;;;;;27.37;42.87;99302.47;5006858;28;19917;-82
2022/05/24 12:59:53;;;;;;;;;;;;;;;27.26;43.24;99299.84;5008254;28;19928;-83
2022/05/24 13:02:31;;;;;;;;;;;;;;;27.17;43.40;99296.13;5007601;28;19923;-82
2022/05/24 13:04:58;;;;;;;;;;;;;;;27.37;41.63;99298.91;5006958;28;19991;-82
2022/05/24 13:07:23;;;;;;;;;;;;;;;27.59;41.47;99281.53;5007087;28;19972;-83
2022/05/24 13:09:49;;;;;;;;;;;;;;;27.45;42.68;99274.69;5004814;28;20797;-85
2022/05/24 13:12:15;;;;;;;;;;;;;;;27.00;43.14;99273.28;5004687;28;19921;-83
2022/05/24 13:14:44;;;;;;;;;;;;;;;26.88;42.49;99264.44;5005896;28;20012;-84
2022/05/24 13:17:11;;;;;;;;;;;;;;;26.74;43.33;99260.28;5006926;28;20020;-85
2022/05/24 13:19:43;;;;;;;;;;;;;;;26.44;44.56;99256.53;5006538;28;20019;-85
2022/05/24 13:22:09;;;;;;;;;;;;;;;26.44;45.22;99248.44;4988091;28;19921;-84
2022/05/24 13:24:46;;;;;;;;;;;;;;;26.22;45.81;99251.34;5007890;28;20371;-84
2022/05/24 13:27:12;;;;;;;;;;;;;;;25.95;46.02;99243.72;5006086;28;19921;-83
2022/05/24 13:35:05;;;;;;;;;;;;;;;26.31;45.50;99234.31;5006126;28;19925;-82
2022/05/24 13:37:49;;;;;;;;;;;;;;;26.43;45.34;99233.22;5004216;28;19925;-84
2022/05/24 13:40:15;;;;;;;;;;;;;;;26.17;45.05;99238.22;5005495;28;20382;-85